South Danville, New Hampshire
Current Conditions -  °F | °C
As of 1:04 PM on Monday 26 Jan 2015 (Local Time) from KLWM Reporting Station
Light Snow Light Snow  
Wind Chill:   Ceiling: 1900
Heat Index: 20°   Visibility: 4mi
Dew Point: 12°   Wind: 15mph
Humidity: 71%   Direction: 30°NNE
Pressure: 30.1"   Gusts: NA
Location:  42.9217°N, 71.1138°W
Report Text: KLWM 261804Z 03013KT 4SM -SN BKN019 BKN024 OVC032 M07/M11 A3010 RMK AO2 P0000 T10671111
Loading
Personal Weather Stations






























Interactive Weather Map New forecast layout! Learn more

10-Day Weather Forecast

Advertisements
Track Severe Weather on mobile